createdAt,value
2023-02-11T00:01:28.751Z,50.85
2023-02-11T00:03:57.320Z,47.30
2023-02-11T00:06:26.370Z,48.28
2023-02-11T00:08:56.002Z,47.47
2023-02-11T00:11:25.663Z,46.83
2023-02-11T00:13:53.772Z,45.65
2023-02-11T00:16:22.037Z,47.05
2023-02-11T00:18:50.416Z,46.15
2023-02-11T00:21:21.627Z,46.05
2023-02-11T00:23:50.032Z,45.97
2023-02-11T00:26:20.683Z,45.55
2023-02-11T00:28:49.922Z,45.58
2023-02-11T00:31:18.716Z,44.67
2023-02-11T00:33:46.953Z,44.45
2023-02-11T00:36:16.356Z,43.75
2023-02-11T00:38:47.908Z,42.65
2023-02-11T00:41:16.208Z,44.17
2023-02-11T00:43:45.852Z,42.53
2023-02-11T00:46:14.233Z,40.28
2023-02-11T00:48:42.423Z,39.92
2023-02-11T00:51:10.634Z,39.42
2023-02-11T00:53:38.796Z,40.63
2023-02-11T00:56:07.489Z,39.30
2023-02-11T00:58:35.955Z,38.65
2023-02-11T01:01:05.761Z,38.60
2023-02-11T01:03:33.822Z,37.95
2023-02-11T01:06:01.960Z,38.72
2023-02-11T01:08:30.452Z,39.10
2023-02-11T01:10:59.618Z,38.00
2023-02-11T01:13:27.688Z,36.50
2023-02-11T01:15:55.970Z,36.13
2023-02-11T01:18:25.764Z,36.80
2023-02-11T01:20:53.946Z,35.95
2023-02-11T01:23:22.045Z,35.17
2023-02-11T01:25:52.419Z,34.90
2023-02-11T01:28:21.138Z,35.03
2023-02-11T01:30:49.471Z,34.80
2023-02-11T01:33:17.607Z,33.88
2023-02-11T01:35:47.483Z,35.25
2023-02-11T01:38:16.840Z,35.13
2023-02-11T01:40:49.018Z,32.88
2023-02-11T01:43:17.215Z,33.25
2023-02-11T01:46:04.213Z,34.05
2023-02-11T01:48:35.210Z,32.03
2023-02-11T01:51:07.685Z,30.73
2023-02-11T01:53:53.770Z,31.85
2023-02-11T01:56:39.038Z,31.10
2023-02-11T01:59:11.682Z,30.92
2023-02-11T02:01:39.968Z,31.75
2023-02-11T02:04:08.380Z,30.25
2023-02-11T02:06:41.747Z,29.98
2023-02-11T02:09:11.118Z,29.73
2023-02-11T02:11:39.289Z,29.52
2023-02-11T02:14:07.374Z,29.65
2023-02-11T02:16:36.504Z,29.38
2023-02-11T02:19:32.567Z,29.42
2023-02-11T02:22:14.436Z,28.77
2023-02-11T02:25:01.159Z,28.63
2023-02-11T02:27:35.460Z,27.70
2023-02-11T02:30:42.764Z,28.35
2023-02-11T02:33:39.089Z,26.67
2023-02-11T02:36:10.862Z,26.95
2023-02-11T02:38:40.373Z,27.15
2023-02-11T02:41:09.399Z,26.52
2023-02-11T02:43:38.842Z,26.98
2023-02-11T02:46:14.507Z,25.75
2023-02-11T02:48:44.371Z,26.13
2023-02-11T02:51:20.687Z,25.23
2023-02-11T02:53:56.023Z,25.17
2023-02-11T02:56:26.643Z,24.63
2023-02-11T02:59:02.554Z,25.10
2023-02-11T03:01:36.583Z,25.08
2023-02-11T03:04:08.442Z,23.20
2023-02-11T03:06:40.513Z,23.10
2023-02-11T03:09:12.000Z,23.33
2023-02-11T03:11:40.421Z,22.75
2023-02-11T03:14:11.023Z,21.38
2023-02-11T03:16:39.413Z,22.20
2023-02-11T03:19:11.974Z,22.05
2023-02-11T03:21:40.150Z,22.27
2023-02-11T03:24:09.582Z,20.92
2023-02-11T03:26:39.590Z,21.58
2023-02-11T03:29:10.326Z,21.70
2023-02-11T03:31:41.399Z,21.55
2023-02-11T03:34:12.746Z,20.35
2023-02-11T03:36:46.068Z,20.77
2023-02-11T03:39:15.065Z,20.00
2023-02-11T03:41:43.385Z,20.20
2023-02-11T03:44:11.607Z,19.90
2023-02-11T03:46:40.206Z,19.63
2023-02-11T03:49:10.794Z,19.30
2023-02-11T03:51:39.002Z,18.17
2023-02-11T03:54:10.001Z,18.95
2023-02-11T03:56:47.121Z,19.02
2023-02-11T03:59:15.329Z,18.30
2023-02-11T04:01:43.617Z,18.55
2023-02-11T04:04:13.229Z,17.95
2023-02-11T04:06:41.367Z,17.77
2023-02-11T04:09:10.031Z,18.10
2023-02-11T04:11:38.236Z,16.92
2023-02-11T04:14:06.436Z,17.55
2023-02-11T04:16:34.837Z,17.48
2023-02-11T04:19:03.327Z,17.42
2023-02-11T04:21:33.021Z,17.50
2023-02-11T04:24:01.224Z,16.98
2023-02-11T04:26:29.400Z,15.48
2023-02-11T04:28:57.916Z,17.27
2023-02-11T04:31:26.188Z,16.70
2023-02-11T04:33:54.504Z,16.10
2023-02-11T04:36:22.633Z,16.45
2023-02-11T04:38:52.213Z,15.82
2023-02-11T04:41:20.395Z,15.98
2023-02-11T04:43:48.898Z,15.90
2023-02-11T04:46:17.083Z,16.38
2023-02-11T04:48:45.336Z,16.05
2023-02-11T04:51:13.475Z,15.40
2023-02-11T04:53:42.234Z,15.68
2023-02-11T04:56:12.285Z,14.98
2023-02-11T04:58:40.707Z,14.85
2023-02-11T05:01:09.056Z,15.35
2023-02-11T05:03:37.335Z,15.43
2023-02-11T05:06:06.260Z,15.10
2023-02-11T05:08:34.392Z,14.95
2023-02-11T05:11:03.178Z,14.68
2023-02-11T05:13:33.755Z,13.82
2023-02-11T05:16:02.039Z,15.05
2023-02-11T05:18:30.187Z,14.35
2023-02-11T05:20:58.582Z,13.30
2023-02-11T05:23:26.727Z,13.80
2023-02-11T05:25:54.802Z,13.65
2023-02-11T05:28:22.998Z,14.82
2023-02-11T05:30:52.632Z,13.30
2023-02-11T05:33:20.856Z,13.60
2023-02-11T05:35:49.433Z,13.88
2023-02-11T05:38:17.928Z,12.88
2023-02-11T05:40:46.069Z,12.98
2023-02-11T05:43:14.255Z,13.63
2023-02-11T05:45:42.400Z,12.75
2023-02-11T05:48:11.999Z,13.18
2023-02-11T05:50:40.128Z,12.55
2023-02-11T05:53:08.221Z,11.70
2023-02-11T05:55:36.649Z,12.50
2023-02-11T05:58:04.967Z,12.82
2023-02-11T06:00:33.151Z,12.38
2023-02-11T06:03:01.374Z,12.32
2023-02-11T06:05:30.842Z,11.80
2023-02-11T06:07:59.123Z,12.60
2023-02-11T06:10:27.485Z,11.68
2023-02-11T06:12:55.681Z,11.93
2023-02-11T06:15:23.825Z,12.75
2023-02-11T06:17:52.353Z,11.80
2023-02-11T06:20:20.926Z,12.00
2023-02-11T06:22:50.574Z,11.93
2023-02-11T06:25:18.898Z,11.68
2023-02-11T06:27:47.006Z,11.73
2023-02-11T06:30:15.923Z,11.68
2023-02-11T06:32:45.697Z,11.93
2023-02-11T06:35:14.477Z,11.40
2023-02-11T06:37:42.797Z,11.50
2023-02-11T06:40:12.627Z,11.88
2023-02-11T06:42:40.861Z,11.63
2023-02-11T06:45:11.113Z,12.38
2023-02-11T06:47:39.460Z,11.60
2023-02-11T06:50:08.207Z,12.55
2023-02-11T06:52:36.579Z,13.00
2023-02-11T06:55:05.318Z,13.27
2023-02-11T06:57:34.830Z,12.48
2023-02-11T07:00:03.204Z,14.23
2023-02-11T07:02:31.371Z,14.15
2023-02-11T07:04:59.592Z,17.42
2023-02-11T07:07:28.329Z,19.50
2023-02-11T07:09:56.418Z,20.98
2023-02-11T07:12:24.509Z,20.95
2023-02-11T07:14:54.150Z,21.80
2023-02-11T07:17:22.238Z,28.83
2023-02-11T07:19:50.250Z,25.48
2023-02-11T07:22:18.392Z,27.38
2023-02-11T07:24:46.726Z,24.33
2023-02-11T07:27:14.827Z,35.38
2023-02-11T07:29:43.636Z,28.55
2023-02-11T07:32:13.207Z,33.78
2023-02-11T07:34:41.455Z,38.83
2023-02-11T07:37:09.569Z,37.50
2023-02-11T07:39:37.656Z,41.70
2023-02-11T07:42:06.150Z,38.63
2023-02-11T07:44:35.157Z,36.58
2023-02-11T07:47:03.254Z,40.75
2023-02-11T07:49:32.805Z,40.33
2023-02-11T07:52:02.190Z,37.70
2023-02-11T07:54:30.534Z,39.25
2023-02-11T07:56:58.842Z,39.35
2023-02-11T07:59:27.509Z,41.75
2023-02-11T08:01:55.620Z,38.33
2023-02-11T08:04:23.734Z,39.13
2023-02-11T08:06:58.866Z,37.35
2023-02-11T08:09:27.196Z,38.25
2023-02-11T08:11:55.247Z,40.60
2023-02-11T08:14:25.215Z,46.72
2023-02-11T08:16:53.564Z,48.97
2023-02-11T08:19:21.714Z,48.00
2023-02-11T08:21:50.513Z,46.95
2023-02-11T08:24:20.004Z,47.25
2023-02-11T08:26:48.529Z,45.88
2023-02-11T08:29:17.164Z,45.35
2023-02-11T08:31:46.934Z,43.20
2023-02-11T08:34:18.214Z,43.53
2023-02-11T08:36:46.634Z,41.53
2023-02-11T08:39:19.771Z,42.55
2023-02-11T08:41:50.141Z,42.60
2023-02-11T08:44:18.492Z,41.38
2023-02-11T08:46:46.664Z,40.45
2023-02-11T08:49:15.179Z,40.20
2023-02-11T08:51:43.212Z,39.88
2023-02-11T08:54:11.332Z,38.75
2023-02-11T08:56:39.412Z,39.70
2023-02-11T08:59:09.373Z,44.00
2023-02-11T09:01:37.734Z,51.17
2023-02-11T09:04:06.030Z,46.13
2023-02-11T09:06:34.157Z,46.65
2023-02-11T09:09:02.228Z,52.67
2023-02-11T09:11:31.526Z,51.67
2023-02-11T09:13:59.646Z,48.83
2023-02-11T09:16:33.022Z,48.30
2023-02-11T09:19:01.644Z,51.53
2023-02-11T09:21:30.015Z,48.28
2023-02-11T09:23:58.069Z,53.17
2023-02-11T09:26:27.434Z,50.63
2023-02-11T09:28:55.628Z,50.00
2023-02-11T09:31:24.778Z,58.67
2023-02-11T09:33:55.582Z,55.00
2023-02-11T09:36:24.945Z,52.95
2023-02-11T09:38:53.474Z,55.85
2023-02-11T09:41:41.131Z,53.67
2023-02-11T09:44:10.889Z,52.63
2023-02-11T09:46:41.230Z,52.42
2023-02-11T09:49:13.230Z,56.38
2023-02-11T09:51:43.692Z,58.63
2023-02-11T09:54:14.448Z,58.22
2023-02-11T09:56:42.586Z,57.33
2023-02-11T09:59:12.327Z,57.05
2023-02-11T10:01:42.171Z,58.60
2023-02-11T10:04:15.523Z,54.60
2023-02-11T10:06:45.509Z,54.70
2023-02-11T10:09:23.530Z,55.75
2023-02-11T10:11:55.211Z,62.20
2023-02-11T10:14:30.225Z,65.55
2023-02-11T10:17:04.615Z,71.53
2023-02-11T10:19:44.745Z,70.25
2023-02-11T10:22:16.482Z,68.63
2023-02-11T10:24:44.668Z,73.57
2023-02-11T10:27:17.076Z,72.10
2023-02-11T10:29:47.614Z,69.97
2023-02-11T10:32:21.223Z,74.60
2023-02-11T10:34:50.757Z,74.00
2023-02-11T10:37:19.027Z,71.38
2023-02-11T10:39:47.411Z,74.20
2023-02-11T10:42:15.629Z,72.20
2023-02-11T10:44:45.231Z,73.15
2023-02-11T10:47:15.705Z,70.35
2023-02-11T10:49:44.364Z,72.82
2023-02-11T10:52:32.832Z,73.65
2023-02-11T10:55:03.223Z,69.68
2023-02-11T10:57:34.773Z,69.32
2023-02-11T11:00:06.819Z,68.97
2023-02-11T11:02:36.013Z,67.38
2023-02-11T11:05:07.366Z,76.30
2023-02-11T11:07:37.178Z,76.40
2023-02-11T11:10:06.770Z,78.05
2023-02-11T11:12:40.371Z,76.93
2023-02-11T11:15:21.766Z,75.10
2023-02-11T11:17:50.270Z,73.95
2023-02-11T11:20:24.396Z,72.75
2023-02-11T11:22:55.667Z,70.15
2023-02-11T11:25:25.511Z,70.20
2023-02-11T11:27:54.771Z,68.40
2023-02-11T11:30:27.772Z,66.55
2023-02-11T11:32:56.663Z,65.05
2023-02-11T11:35:29.233Z,66.57
2023-02-11T11:38:02.017Z,64.75
2023-02-11T11:40:30.906Z,63.92
2023-02-11T11:43:21.328Z,61.75
2023-02-11T11:45:54.785Z,63.22
2023-02-11T11:48:23.989Z,58.55
2023-02-11T11:50:53.614Z,53.00
2023-02-11T11:53:25.849Z,53.35
2023-02-11T11:55:59.664Z,50.97
2023-02-11T11:58:29.640Z,50.03
2023-02-11T12:01:01.488Z,51.13
2023-02-11T12:04:05.428Z,50.17
2023-02-11T12:06:41.201Z,49.33
2023-02-11T12:09:17.899Z,47.45
2023-02-11T12:12:12.280Z,47.92
2023-02-11T12:14:45.054Z,46.17
2023-02-11T12:17:17.549Z,45.83
2023-02-11T12:20:19.115Z,45.05
2023-02-11T12:22:52.743Z,43.70
2023-02-11T12:25:26.678Z,42.72
2023-02-11T12:28:00.867Z,41.67
2023-02-11T12:30:47.457Z,43.83
2023-02-11T12:33:21.069Z,43.33
2023-02-11T12:35:54.040Z,41.20
2023-02-11T12:38:38.273Z,40.17
2023-02-11T12:41:15.498Z,39.10
2023-02-11T12:43:43.369Z,39.17
2023-02-11T12:46:35.933Z,38.42
2023-02-11T12:49:23.872Z,37.15
2023-02-11T12:52:01.617Z,35.65
2023-02-11T12:54:30.851Z,35.67
2023-02-11T12:57:03.411Z,36.40
2023-02-11T12:59:42.761Z,39.28
2023-02-11T13:02:17.350Z,40.88
2023-02-11T13:04:47.755Z,41.10
2023-02-11T13:07:17.053Z,41.13
2023-02-11T13:09:46.888Z,42.08
2023-02-11T13:12:34.152Z,44.97
2023-02-11T13:15:05.623Z,44.00
2023-02-11T13:17:36.272Z,47.47
2023-02-11T13:20:07.135Z,47.15
2023-02-11T13:22:36.687Z,47.00
2023-02-11T13:25:07.328Z,46.38
2023-02-11T13:27:42.766Z,47.28
2023-02-11T13:30:28.454Z,47.67
2023-02-11T13:33:08.526Z,48.15
2023-02-11T13:35:37.248Z,45.92
2023-02-11T13:38:06.183Z,47.13
2023-02-11T13:40:35.869Z,46.92
2023-02-11T13:43:06.487Z,46.95
2023-02-11T13:45:37.311Z,45.75
2023-02-11T13:48:06.830Z,46.30
2023-02-11T13:50:39.417Z,47.70
2023-02-11T13:53:08.796Z,47.05
2023-02-11T13:55:38.278Z,47.28
2023-02-11T13:58:36.843Z,46.78
2023-02-11T14:01:05.735Z,47.60
2023-02-11T14:03:52.809Z,46.13
2023-02-11T14:07:00.181Z,48.92
2023-02-11T14:09:39.503Z,48.55
2023-02-11T14:12:33.417Z,48.42
2023-02-11T14:15:19.326Z,50.22
2023-02-11T14:17:47.623Z,48.72
2023-02-11T14:20:39.873Z,49.28
2023-02-11T14:23:08.259Z,47.78
2023-02-11T14:25:36.482Z,47.60
2023-02-11T14:28:09.376Z,48.05
2023-02-11T14:30:45.835Z,46.95
2023-02-11T14:33:27.892Z,47.25
2023-02-11T14:36:02.865Z,46.83
2023-02-11T14:38:35.944Z,46.88
2023-02-11T14:41:08.027Z,45.42
2023-02-11T14:43:37.653Z,50.53
2023-02-11T14:46:07.349Z,50.38
2023-02-11T14:48:36.257Z,50.85
2023-02-11T14:51:05.190Z,54.13
2023-02-11T14:53:33.985Z,53.08
2023-02-11T14:56:02.058Z,54.10
2023-02-11T14:58:30.860Z,54.10
2023-02-11T15:01:00.156Z,54.78
2023-02-11T15:03:32.037Z,56.80
2023-02-11T15:06:01.143Z,56.35
2023-02-11T15:08:29.655Z,54.78
2023-02-11T15:10:57.926Z,55.28
2023-02-11T15:13:31.174Z,54.22
2023-02-11T15:16:02.165Z,55.70
2023-02-11T15:18:36.786Z,53.53
2023-02-11T15:21:05.777Z,65.15
2023-02-11T15:23:34.011Z,57.83
2023-02-11T15:26:05.786Z,56.05
2023-02-11T15:28:34.728Z,57.40
2023-02-11T15:31:03.981Z,59.22
2023-02-11T15:33:34.052Z,58.00
2023-02-11T15:36:02.732Z,57.67
2023-02-11T15:38:31.356Z,56.13
2023-02-11T15:41:00.944Z,58.78
2023-02-11T15:43:42.612Z,56.88
2023-02-11T15:46:11.249Z,53.95
2023-02-11T15:48:43.781Z,54.70
2023-02-11T15:51:18.850Z,53.33
2023-02-11T15:53:49.694Z,52.15
2023-02-11T15:56:20.136Z,53.08
2023-02-11T15:58:49.022Z,51.35
2023-02-11T16:01:17.233Z,52.15
2023-02-11T16:03:51.097Z,53.17
2023-02-11T16:06:23.406Z,50.90
2023-02-11T16:09:02.095Z,49.50
2023-02-11T16:11:31.674Z,51.00
2023-02-11T16:14:01.014Z,51.30
2023-02-11T16:16:30.354Z,51.85
2023-02-11T16:19:07.437Z,52.78
2023-02-11T16:21:39.467Z,50.85
2023-02-11T16:24:08.484Z,50.97
2023-02-11T16:26:38.148Z,51.03
2023-02-11T16:29:08.135Z,50.00
2023-02-11T16:31:37.235Z,51.28
2023-02-11T16:34:12.786Z,52.10
2023-02-11T16:36:41.395Z,51.92
2023-02-11T16:39:09.540Z,49.20
2023-02-11T16:41:37.777Z,50.80
2023-02-11T16:44:06.147Z,50.95
2023-02-11T16:46:34.349Z,50.33
2023-02-11T16:49:09.421Z,49.45
2023-02-11T16:51:39.657Z,49.40
2023-02-11T16:54:07.860Z,49.33
2023-02-11T16:56:35.996Z,50.30
2023-02-11T16:59:04.209Z,50.50
2023-02-11T17:01:32.840Z,53.05
2023-02-11T17:04:01.164Z,52.97
2023-02-11T17:06:30.834Z,54.08
2023-02-11T17:08:58.941Z,53.55
2023-02-11T17:11:27.214Z,54.47
2023-02-11T17:13:55.385Z,56.53
2023-02-11T17:16:25.041Z,57.42
2023-02-11T17:18:53.555Z,58.67
2023-02-11T17:21:22.055Z,57.78
2023-02-11T17:23:51.620Z,57.28
2023-02-11T17:26:19.893Z,56.50
2023-02-11T17:28:48.760Z,56.08
2023-02-11T17:31:17.163Z,56.58
2023-02-11T17:33:45.389Z,57.22
2023-02-11T17:36:13.556Z,57.47
2023-02-11T17:38:41.665Z,57.75
2023-02-11T17:41:11.274Z,58.92
2023-02-11T17:43:39.501Z,61.15
2023-02-11T17:46:08.822Z,58.65
2023-02-11T17:48:38.644Z,59.42
2023-02-11T17:51:08.788Z,62.33
2023-02-11T17:53:36.914Z,61.42
2023-02-11T17:56:07.339Z,62.92
2023-02-11T17:58:36.955Z,62.85
2023-02-11T18:01:05.622Z,64.80
2023-02-11T18:03:34.161Z,63.00
2023-02-11T18:06:02.394Z,64.80
2023-02-11T18:08:30.470Z,64.75
2023-02-11T18:10:58.541Z,65.20
2023-02-11T18:13:26.628Z,65.00
2023-02-11T18:15:56.428Z,65.35
2023-02-11T18:18:27.338Z,64.50
2023-02-11T18:20:59.091Z,62.60
2023-02-11T18:23:27.429Z,65.28
2023-02-11T18:25:55.587Z,65.38
2023-02-11T18:28:23.876Z,64.32
2023-02-11T18:30:59.403Z,63.53
2023-02-11T18:33:27.842Z,65.13
2023-02-11T18:35:55.953Z,61.38
2023-02-11T18:38:24.283Z,63.80
2023-02-11T18:40:52.777Z,61.78
2023-02-11T18:43:21.172Z,63.55
2023-02-11T18:45:49.822Z,66.20
2023-02-11T18:48:19.942Z,63.58
2023-02-11T18:50:48.043Z,67.18
2023-02-11T18:53:16.373Z,67.05
2023-02-11T18:55:45.006Z,66.88
2023-02-11T18:58:13.550Z,68.25
2023-02-11T19:00:43.314Z,67.55
2023-02-11T19:03:11.610Z,69.70
2023-02-11T19:05:52.758Z,71.32
2023-02-11T19:08:21.251Z,69.28
2023-02-11T19:10:49.546Z,71.88
2023-02-11T19:13:17.729Z,76.38
2023-02-11T19:15:46.276Z,73.18
2023-02-11T19:18:14.789Z,70.75
2023-02-11T19:20:44.447Z,72.53
2023-02-11T19:23:12.641Z,75.30
2023-02-11T19:25:46.634Z,77.22
2023-02-11T19:28:14.851Z,78.53
2023-02-11T19:30:43.371Z,81.95
2023-02-11T19:33:11.886Z,79.28
2023-02-11T19:35:40.369Z,80.55
2023-02-11T19:38:10.210Z,84.78
2023-02-11T19:40:38.336Z,83.85
2023-02-11T19:43:06.495Z,83.55
2023-02-11T19:45:34.769Z,83.45
2023-02-11T19:48:03.109Z,80.43
2023-02-11T19:50:31.443Z,80.32
2023-02-11T19:53:02.461Z,80.40
2023-02-11T19:55:32.062Z,82.15
2023-02-11T19:58:00.240Z,80.75
2023-02-11T20:00:28.374Z,80.20
2023-02-11T20:02:56.897Z,81.30
2023-02-11T20:05:25.051Z,79.95
2023-02-11T20:07:53.227Z,83.80
2023-02-11T20:10:21.539Z,78.75
2023-02-11T20:12:51.206Z,82.53
2023-02-11T20:15:19.502Z,81.30
2023-02-11T20:17:47.736Z,79.80
2023-02-11T20:20:16.020Z,80.70
2023-02-11T20:22:44.212Z,79.43
2023-02-11T20:25:12.410Z,79.82
2023-02-11T20:27:41.121Z,80.13
2023-02-11T20:30:12.107Z,78.53
2023-02-11T20:32:40.349Z,79.57
2023-02-11T20:35:09.070Z,82.68
2023-02-11T20:37:38.758Z,78.07
2023-02-11T20:40:08.115Z,77.13
2023-02-11T20:42:36.453Z,92.72
2023-02-11T20:45:04.754Z,91.53
2023-02-11T20:47:34.399Z,89.10
2023-02-11T20:50:02.544Z,84.68
2023-02-11T20:52:30.780Z,85.32
2023-02-11T20:54:58.965Z,84.03
2023-02-11T20:57:27.183Z,81.68
2023-02-11T20:59:55.377Z,80.53
2023-02-11T21:02:24.859Z,80.38
2023-02-11T21:04:54.658Z,76.63
2023-02-11T21:07:22.841Z,76.78
2023-02-11T21:09:51.038Z,77.80
2023-02-11T21:12:19.172Z,75.43
2023-02-11T21:14:47.505Z,76.05
2023-02-11T21:17:15.700Z,74.78
2023-02-11T21:19:44.069Z,74.60
2023-02-11T21:22:13.678Z,71.43
2023-02-11T21:24:41.946Z,72.13
2023-02-11T21:27:10.217Z,71.32
2023-02-11T21:29:52.764Z,69.18
2023-02-11T21:32:21.874Z,70.32
2023-02-11T21:34:50.084Z,68.68
2023-02-11T21:37:19.710Z,67.65
2023-02-11T21:39:47.898Z,67.78
2023-02-11T21:42:16.149Z,67.72
2023-02-11T21:44:44.273Z,66.28
2023-02-11T21:47:12.431Z,64.00
2023-02-11T21:49:40.694Z,66.00
2023-02-11T21:52:08.894Z,65.97
2023-02-11T21:54:38.685Z,65.22
2023-02-11T21:57:07.430Z,64.10
2023-02-11T21:59:35.511Z,62.70
2023-02-11T22:02:03.616Z,63.45
2023-02-11T22:04:31.844Z,61.80
2023-02-11T22:07:00.057Z,61.00
2023-02-11T22:09:28.555Z,61.85
2023-02-11T22:11:58.079Z,60.55
2023-02-11T22:14:26.301Z,58.80
2023-02-11T22:16:54.752Z,60.60
2023-02-11T22:19:23.770Z,57.97
2023-02-11T22:21:51.895Z,58.15
2023-02-11T22:24:20.058Z,57.90
2023-02-11T22:26:48.296Z,56.13
2023-02-11T22:29:17.962Z,58.22
2023-02-11T22:31:46.225Z,57.80
2023-02-11T22:34:14.692Z,56.53
2023-02-11T22:36:44.752Z,55.30
2023-02-11T22:39:14.106Z,52.60
2023-02-11T22:41:42.363Z,52.83
2023-02-11T22:44:10.688Z,52.10
2023-02-11T22:46:40.368Z,53.00
2023-02-11T22:49:09.206Z,53.20
2023-02-11T22:51:37.377Z,51.30
2023-02-11T22:54:07.240Z,51.00
2023-02-11T22:56:35.934Z,51.28
2023-02-11T22:59:05.581Z,50.28
2023-02-11T23:01:34.200Z,49.35
2023-02-11T23:04:04.580Z,51.47
2023-02-11T23:06:32.777Z,49.22
2023-02-11T23:09:01.262Z,48.67
2023-02-11T23:11:30.540Z,48.33
2023-02-11T23:13:58.761Z,50.15
2023-02-11T23:16:28.083Z,46.97
2023-02-11T23:18:56.351Z,47.63
2023-02-11T23:21:27.230Z,46.45
2023-02-11T23:23:55.998Z,45.17
2023-02-11T23:26:24.229Z,45.97
2023-02-11T23:28:52.479Z,46.08
2023-02-11T23:31:21.868Z,44.13
2023-02-11T23:33:50.152Z,43.40
2023-02-11T23:36:18.655Z,43.20
2023-02-11T23:38:48.285Z,44.65
2023-02-11T23:41:16.552Z,45.40
2023-02-11T23:43:44.906Z,43.03
2023-02-11T23:46:13.094Z,43.25
2023-02-11T23:48:41.601Z,43.03
2023-02-11T23:51:10.750Z,41.90
2023-02-11T23:53:38.953Z,40.42
2023-02-11T23:56:09.669Z,42.40
2023-02-11T23:58:37.940Z,40.20
